KSEE/SEE METAR and TAF weather

Enter ICAO airport designator
Station Type Date Time Source
KSEE METAR 2020/09/18 22:47 UTC NOAA

KSEE 182247Z 29010KT 10SM SKC 36/M01 A2982


Station Type Date Time Source
KSEE Decoded METAR 2020/09/18 22:47 UTC NOAA

San Diego/El Cajon, Gillespie Field Airport, CA, United States (KSEE) 32-49-34N 116-58-20W
Sep 18, 2020 - 06:47 PM EDT / 2020.09.18 2247 UTC
Wind: from the WNW (290 degrees) at 12 MPH (10 KT):0
Visibility: 10 mile(s):0
Sky conditions: clear
Temperature: 96 F (36 C)
Dew Point: 30 F (-1 C)
Relative Humidity: 9%
Pressure (altimeter): 29.82 in. Hg (1009 hPa)
ob: KSEE 182247Z 29010KT 10SM SKC 36/M01 A2982
cycle: 23

Station Type Date Time Source
KSEE TAF UTC NOAA

Error!

Example: see airport list